Aeroporto :
LOGIN :

Iscrizione | Disclaimer

   EN    FR    IT 

 










Sommario :    VFR   VFR Marginale   IFR   IFR Intensivo   IFR Molto Intensivo
Visibilità : 
Base nubi : 
>= 8 km
>= 3000ft
5 / 8 km
1000 / 3000 ft
1500m / 5 km
500 / 1000 ft
800 / 1500m
200 / 500 ft
< 800m
< 200 ft
Simboli :   Temporali  Nebbia  Neve Forte  Precipitazioni Forti  Vento > 20 kt
SIGMETs :   Varie  Temporali  Ghiacco  Turbolenza  Onda orograficha  Ceneri Vulcaniche







- Altitudine del aeroporto : 776 ft
- Codice IATA : RMS


ETAR - Ramstein Air Base

ULTIMO METAR :
  • 260517Z 24003KT 9999 BKN014 OVC019 08/07 A2992 RMK AO2A RAE07 SLP136 $

METARs OBSOLETI :
  • 260507Z 21005KT 9999 SCT011 OVC015 08/07 A2992 RMK AO2A RAE07 SLP136 $
  • 260456Z 25006KT 9999 -RA SCT011 OVC017 08/07 A2989 RMK AO2A OVC V BKN SLP126 P0002 T00800066 $
  • 260436Z 25005KT 9999 -RA SCT015 BKN019 OVC050 08/07 A2989 RMK AO2A BKN V SCT SLP125 $
  • 260406Z 25005KT 9999 -RA SCT015 08/07 A2989 RMK AO2A SLP124 $
  • 260356Z 24004KT 9999 -RA BKN012 BKN019 08/07 A2989 RMK AO2A RAB14 SLP124 P0001 T00820068 $
  • 260334Z 24004KT 9999 -RA BKN014 OVC021 08/07 A2989 RMK AO2A RAB14 SLP124 $
  • 260324Z AUTO 26008KT 9999 -RA BKN015 OVC055 09/07 A2988 RMK AO2 RAB14 CIG 015V055 BKN V SCT CIG 014 RWY08 SLP120 $
  • 260314Z AUTO 25005KT 9999 -RA SCT015 OVC055 09/06 A2988 RMK AO2 RAB14 SLP119 $
  • 260310Z AUTO 25007KT 9999 FEW015 OVC055 09/06 A2989 RMK AO2 SLP122 $
  • 260256Z AUTO 24007KT 9999 OVC055 09/06 A2988 RMK AO2 SLP119 T00900061 50009 $

TAF AMD TAF ETAR
Valido dal 26 a 04 ore il 27 a 08 ore UTC


260500Z 2604/2708 VRB06KT 8000 -RA OVC015 620609 QNH2986INS
BECMG 2607/2608 24009KT 9999 NSW BKN010 620609 QNH2991INS
BECMG 2611/2612 24009KT 9999 SCT030 QNH2992INS
BECMG 2616/2617 VRB06KT 9999 SCT040 QNH2994INS
BECMG 2702/2703 VRB06KT 8000 BR BKN010 QNH2995INS
BECMG 2705/2706 20009KT 8000 -SHRA OVC007 620609 QNH2995INS TX15/2615Z TN06/2703Z
Nessun NOTAM noto per questo aeroporto.



MetMap, La meteo Aeronautica in un colpo d'occhio ! - Copyright ORBIFLY Dicembre 2007 - Disclaimer

ORBIFLY MET'MAP TEAM :

Programmazione e sviluppo : Alexandra Zaïnal
Concezione e sviluppo : Baudouin d'Aumeries
Co-Programmazione e sviluppo : Marc-Olivier Méhu
Supporto tecnico e logistico : Manuel Goepfert
Aiuto per la traduzione : Arnaldo La Scala

Contatto : metmap@orbifly.com




FONTI E CREDITI :

   NOAA